Time,TemperatureF,DewpointF,PressureIn,WindDirection,WindDirectionDegrees,WindSpeedMPH,WindSpeedGustMPH,Humidity,HourlyPrecipIn,Conditions,Clouds,dailyrainin,SoftwareType,DateUTC
2013-03-03 00:00:00,34.2,29.0,30.28,North,356,0.0,0.0,82,0.00,,,0.00,weatherlink.com 1.10,2013-03-03 06:00:00,
2013-03-03 00:15:00,34.4,31.0,30.29,SW,225,0.0,1.0,86,0.00,,,0.00,weatherlink.com 1.10,2013-03-03 06:15:00,
2013-03-03 00:30:00,34.2,30.0,30.29,SW,226,0.0,1.0,86,0.00,,,0.00,weatherlink.com 1.10,2013-03-03 06:30:00,
2013-03-03 00:45:00,33.9,30.0,30.29,SW,225,0.0,1.0,87,0.00,,,0.00,weatherlink.com 1.10,2013-03-03 06:45:00,
2013-03-03 01:00:00,33.9,30.0,30.28,SW,225,0.0,1.0,87,0.00,,,0.00,weatherlink.com 1.10,2013-03-03 07:00:00,
2013-03-03 01:15:00,33.4,30.0,30.28,SW,225,0.0,0.0,87,0.00,,,0.00,weatherlink.com 1.10,2013-03-03 07:15:00,
2013-03-03 01:30:00,33.1,30.0,30.27,SW,226,0.0,0.0,88,0.00,,,0.00,weatherlink.com 1.10,2013-03-03 07:30:00,
2013-03-03 01:45:00,33.3,30.0,30.27,SW,232,1.0,1.0,88,0.00,,,0.00,weatherlink.com 1.10,2013-03-03 07:45:00,
2013-03-03 02:00:00,32.9,30.0,30.27,SW,231,0.0,0.0,88,0.00,,,0.00,weatherlink.com 1.10,2013-03-03 08:00:00,
2013-03-03 02:15:00,32.0,29.0,30.27,SW,232,0.0,0.0,88,0.00,,,0.00,weatherlink.com 1.10,2013-03-03 08:15:00,
2013-03-03 02:30:00,32.0,29.0,30.26,SW,232,0.0,0.0,90,0.00,,,0.00,weatherlink.com 1.10,2013-03-03 08:30:00,
2013-03-03 02:45:00,31.4,29.0,30.26,SW,231,0.0,0.0,90,0.00,,,0.00,weatherlink.com 1.10,2013-03-03 08:45:00,
2013-03-03 03:00:00,31.6,30.0,30.26,WSW,252,0.0,1.0,92,0.00,,,0.00,weatherlink.com 1.10,2013-03-03 09:00:00,
2013-03-03 03:15:00,31.8,29.0,30.25,WSW,252,0.0,0.0,90,0.00,,,0.00,weatherlink.com 1.10,2013-03-03 09:15:00,
2013-03-03 03:30:00,31.8,29.0,30.25,SW,235,0.0,1.0,90,0.00,,,0.00,weatherlink.com 1.10,2013-03-03 09:30:00,
2013-03-03 03:45:00,31.4,29.0,30.26,SW,235,0.0,0.0,89,0.00,,,0.00,weatherlink.com 1.10,2013-03-03 09:45:00,
2013-03-03 04:00:00,31.1,29.0,30.25,SW,235,0.0,0.0,90,0.00,,,0.00,weatherlink.com 1.10,2013-03-03 10:00:00,
2013-03-03 04:15:00,30.6,28.0,30.25,SW,235,0.0,0.0,90,0.00,,,0.00,weatherlink.com 1.10,2013-03-03 10:15:00,
2013-03-03 04:30:00,30.4,28.0,30.26,SW,235,0.0,0.0,91,0.00,,,0.00,weatherlink.com 1.10,2013-03-03 10:30:00,
2013-03-03 04:44:00,30.6,28.0,30.26,SW,235,0.0,0.0,91,0.00,,,0.00,weatherlink.com 1.10,2013-03-03 10:44:00,
2013-03-03 04:59:00,30.5,28.0,30.26,SW,235,0.0,0.0,91,0.00,,,0.00,weatherlink.com 1.10,2013-03-03 10:59:00,
2013-03-03 05:14:00,30.1,28.0,30.27,SW,235,0.0,0.0,92,0.00,,,0.00,weatherlink.com 1.10,2013-03-03 11:14:00,
2013-03-03 05:29:00,30.6,29.0,30.27,SW,235,0.0,1.0,92,0.00,,,0.00,weatherlink.com 1.10,2013-03-03 11:29:00,
2013-03-03 05:44:00,30.9,29.0,30.28,East,83,0.0,1.0,91,0.00,,,0.00,weatherlink.com 1.10,2013-03-03 11:44:00,
2013-03-03 05:59:00,30.6,29.0,30.28,East,84,0.0,0.0,92,0.00,,,0.00,weatherlink.com 1.10,2013-03-03 11:59:00,
2013-03-03 06:14:00,30.4,28.0,30.28,ENE,70,0.0,0.0,92,0.00,,,0.00,weatherlink.com 1.10,2013-03-03 12:14:00,
2013-03-03 06:29:00,30.6,29.0,30.28,ENE,61,0.0,1.0,92,0.00,,,0.00,weatherlink.com 1.10,2013-03-03 12:29:00,
2013-03-03 06:44:00,30.8,28.0,30.28,NW,322,0.0,1.0,91,0.00,,,0.00,weatherlink.com 1.10,2013-03-03 12:44:00,
2013-03-03 06:59:00,30.7,28.0,30.28,NW,322,0.0,0.0,91,0.00,,,0.00,weatherlink.com 1.10,2013-03-03 12:59:00,
2013-03-03 07:13:00,33.2,31.0,30.29,NW,322,0.0,0.0,92,0.00,,,0.00,weatherlink.com 1.10,2013-03-03 13:13:00,
2013-03-03 07:28:00,35.3,31.0,30.29,NW,322,0.0,0.0,85,0.00,,,0.00,weatherlink.com 1.10,2013-03-03 13:28:00,
2013-03-03 07:43:00,35.8,31.0,30.30,NNE,13,1.0,1.0,83,0.00,,,0.00,weatherlink.com 1.10,2013-03-03 13:43:00,
2013-03-03 07:59:00,37.3,32.0,30.30,North,11,1.0,1.0,82,0.00,,,0.00,weatherlink.com 1.10,2013-03-03 13:59:00,
2013-03-03 08:14:00,39.0,32.0,30.30,NNE,17,1.0,2.0,77,0.00,,,0.00,weatherlink.com 1.10,2013-03-03 14:14:00,
2013-03-03 08:29:00,41.2,34.0,30.31,WNW,290,1.0,2.0,74,0.00,,,0.00,weatherlink.com 1.10,2013-03-03 14:29:00,
2013-03-03 08:44:00,42.9,32.0,30.30,NW,316,0.0,2.0,65,0.00,,,0.00,weatherlink.com 1.10,2013-03-03 14:44:00,
2013-03-03 08:59:00,44.7,32.0,30.30,NE,53,1.0,3.0,60,0.00,,,0.00,weatherlink.com 1.10,2013-03-03 14:59:00,
2013-03-03 09:14:00,47.5,28.0,30.30,SW,215,3.0,4.0,47,0.00,,,0.00,weatherlink.com 1.10,2013-03-03 15:14:00,
2013-03-03 09:29:00,48.2,28.0,30.30,SSW,210,2.0,6.0,45,0.00,,,0.00,weatherlink.com 1.10,2013-03-03 15:29:00,
2013-03-03 09:45:00,49.1,28.0,30.30,SSE,151,2.0,6.0,43,0.00,,,0.00,weatherlink.com 1.10,2013-03-03 15:45:00,
2013-03-03 10:00:00,49.3,27.0,30.29,WNW,283,0.0,6.0,42,0.00,,,0.00,weatherlink.com 1.10,2013-03-03 16:00:00,
2013-03-03 10:15:00,50.5,26.0,30.29,South,186,3.0,9.0,39,0.00,,,0.00,weatherlink.com 1.10,2013-03-03 16:15:00,
2013-03-03 10:30:00,51.2,26.0,30.29,SW,221,6.0,9.0,38,0.00,,,0.00,weatherlink.com 1.10,2013-03-03 16:30:00,
2013-03-03 10:45:00,52.1,25.0,30.29,West,267,3.0,9.0,35,0.00,,,0.00,weatherlink.com 1.10,2013-03-03 16:45:00,
2013-03-03 11:00:00,52.8,27.0,30.27,WSW,246,4.0,7.0,36,0.00,,,0.00,weatherlink.com 1.10,2013-03-03 17:00:00,
2013-03-03 11:15:00,53.3,23.0,30.27,West,280,2.0,9.0,31,0.00,,,0.00,weatherlink.com 1.10,2013-03-03 17:15:00,
2013-03-03 11:30:00,54.5,26.0,30.26,SSE,148,3.0,9.0,33,0.00,,,0.00,weatherlink.com 1.10,2013-03-03 17:30:00,
2013-03-03 11:45:00,55.8,24.0,30.26,SW,218,5.0,9.0,29,0.00,,,0.00,weatherlink.com 1.10,2013-03-03 17:45:00,
2013-03-03 12:00:00,56.1,27.0,30.25,SW,224,1.0,12.0,33,0.00,,,0.00,weatherlink.com 1.10,2013-03-03 18:00:00,
2013-03-03 12:15:00,56.5,27.0,30.24,SSE,152,4.0,14.0,32,0.00,,,0.00,weatherlink.com 1.10,2013-03-03 18:15:00,
2013-03-03 12:30:00,56.7,26.0,30.23,West,274,1.0,11.0,31,0.00,,,0.00,weatherlink.com 1.10,2013-03-03 18:30:00,
2013-03-03 12:45:00,57.7,26.0,30.22,SSW,208,8.0,12.0,30,0.00,,,0.00,weatherlink.com 1.10,2013-03-03 18:45:00,
2013-03-03 13:00:00,58.3,27.0,30.21,SW,216,8.0,10.0,30,0.00,,,0.00,weatherlink.com 1.10,2013-03-03 19:00:00,
2013-03-03 13:15:00,59.3,27.0,30.20,South,191,5.0,15.0,29,0.00,,,0.00,weatherlink.com 1.10,2013-03-03 19:15:00,
2013-03-03 13:30:00,59.4,27.0,30.19,SSW,210,10.0,13.0,29,0.00,,,0.00,weatherlink.com 1.10,2013-03-03 19:30:00,
2013-03-03 13:45:00,59.6,27.0,30.18,South,191,7.0,10.0,29,0.00,,,0.00,weatherlink.com 1.10,2013-03-03 19:45:00,
2013-03-03 14:00:00,60.7,26.0,30.17,SSW,207,6.0,11.0,27,0.00,,,0.00,weatherlink.com 1.10,2013-03-03 20:00:00,
2013-03-03 14:15:00,60.3,27.0,30.17,WSW,245,5.0,14.0,28,0.00,,,0.00,weatherlink.com 1.10,2013-03-03 20:15:00,
2013-03-03 14:30:00,60.4,27.0,30.16,SE,124,3.0,14.0,28,0.00,,,0.00,weatherlink.com 1.10,2013-03-03 20:30:00,
2013-03-03 14:45:00,60.7,29.0,30.16,SSE,155,6.0,12.0,30,0.00,,,0.00,weatherlink.com 1.10,2013-03-03 20:45:00,
2013-03-03 15:00:00,60.6,33.0,30.16,SSE,152,5.0,12.0,35,0.00,,,0.00,weatherlink.com 1.10,2013-03-03 21:00:00,
2013-03-03 15:15:00,60.2,34.0,30.15,SSW,208,10.0,11.0,38,0.00,,,0.00,weatherlink.com 1.10,2013-03-03 21:15:00,
2013-03-03 15:30:00,59.7,33.0,30.15,SW,225,15.0,15.0,36,0.00,,,0.00,weatherlink.com 1.10,2013-03-03 21:30:00,
2013-03-03 15:45:00,59.4,34.0,30.15,South,188,10.0,14.0,38,0.00,,,0.00,weatherlink.com 1.10,2013-03-03 21:45:00,
2013-03-03 16:00:00,59.3,34.0,30.14,South,169,3.0,12.0,38,0.00,,,0.00,weatherlink.com 1.10,2013-03-03 22:00:00,
2013-03-03 16:15:00,59.0,34.0,30.15,SSW,193,6.0,15.0,39,0.00,,,0.00,weatherlink.com 1.10,2013-03-03 22:15:00,
2013-03-03 16:30:00,58.2,35.0,30.14,SSE,164,9.0,15.0,41,0.00,,,0.00,weatherlink.com 1.10,2013-03-03 22:30:00,
2013-03-03 16:45:00,58.2,35.0,30.14,SSW,212,5.0,14.0,42,0.00,,,0.00,weatherlink.com 1.10,2013-03-03 22:45:00,
2013-03-03 17:00:00,57.7,35.0,30.13,SW,221,10.0,13.0,42,0.00,,,0.00,weatherlink.com 1.10,2013-03-03 23:00:00,
2013-03-03 17:15:00,57.0,35.0,30.14,SW,215,9.0,12.0,43,0.00,,,0.00,weatherlink.com 1.10,2013-03-03 23:15:00,
2013-03-03 17:30:00,56.4,35.0,30.14,SE,145,4.0,14.0,44,0.00,,,0.00,weatherlink.com 1.10,2013-03-03 23:30:00,
2013-03-03 17:45:00,55.7,35.0,30.13,SSE,164,5.0,14.0,46,0.00,,,0.00,weatherlink.com 1.10,2013-03-03 23:45:00,
2013-03-03 18:00:00,54.6,35.0,30.14,SSE,167,2.0,10.0,48,0.00,,,0.00,weatherlink.com 1.10,2013-03-04 00:00:00,
2013-03-03 18:15:00,53.4,36.0,30.14,South,174,2.0,6.0,52,0.00,,,0.00,weatherlink.com 1.10,2013-03-04 00:15:00,
2013-03-03 18:30:00,52.4,36.0,30.14,SW,218,1.0,8.0,54,0.00,,,0.00,weatherlink.com 1.10,2013-03-04 00:30:00,
2013-03-03 18:44:00,51.8,36.0,30.14,South,188,4.0,7.0,55,0.00,,,0.00,weatherlink.com 1.10,2013-03-04 00:44:00,
2013-03-03 18:59:00,51.3,37.0,30.14,SW,216,4.0,8.0,57,0.00,,,0.00,weatherlink.com 1.10,2013-03-04 00:59:00,
2013-03-03 19:14:00,50.8,37.0,30.14,SSW,205,3.0,7.0,60,0.00,,,0.00,weatherlink.com 1.10,2013-03-04 01:14:00,
2013-03-03 19:29:00,50.5,38.0,30.13,South,186,3.0,8.0,61,0.00,,,0.00,weatherlink.com 1.10,2013-03-04 01:29:00,
2013-03-03 19:44:00,50.5,38.0,30.13,South,171,2.0,6.0,62,0.00,,,0.00,weatherlink.com 1.10,2013-03-04 01:44:00,
2013-03-03 19:59:00,50.4,38.0,30.12,SSW,198,1.0,6.0,63,0.00,,,0.00,weatherlink.com 1.10,2013-03-04 01:59:00,
2013-03-03 20:14:00,50.6,39.0,30.12,SSE,156,5.0,9.0,64,0.00,,,0.00,weatherlink.com 1.10,2013-03-04 02:14:00,
2013-03-03 20:29:00,50.7,39.0,30.12,SSE,149,1.0,7.0,65,0.00,,,0.00,weatherlink.com 1.10,2013-03-04 02:29:00,
2013-03-03 20:44:00,50.4,40.0,30.13,SSE,160,5.0,6.0,68,0.00,,,0.00,weatherlink.com 1.10,2013-03-04 02:44:00,
2013-03-03 20:59:00,50.4,41.0,30.13,WSW,239,1.0,8.0,70,0.00,,,0.00,weatherlink.com 1.10,2013-03-04 02:59:00,
2013-03-03 21:13:00,50.5,41.0,30.13,SSE,155,3.0,8.0,71,0.00,,,0.00,weatherlink.com 1.10,2013-03-04 03:13:00,
2013-03-03 21:28:00,50.6,42.0,30.12,SSW,210,1.0,7.0,73,0.00,,,0.00,weatherlink.com 1.10,2013-03-04 03:28:00,
2013-03-03 21:43:00,50.9,43.0,30.11,SE,139,4.0,8.0,74,0.00,,,0.00,weatherlink.com 1.10,2013-03-04 03:43:00,
2013-03-03 21:58:00,51.0,43.0,30.11,SSE,149,5.0,10.0,75,0.00,,,0.00,weatherlink.com 1.10,2013-03-04 03:58:00,
2013-03-03 22:14:00,51.2,44.0,30.11,SE,136,2.0,8.0,76,0.00,,,0.00,weatherlink.com 1.10,2013-03-04 04:14:00,
2013-03-03 22:29:00,51.6,44.0,30.10,SSE,151,4.0,12.0,76,0.00,,,0.00,weatherlink.com 1.10,2013-03-04 04:29:00,
2013-03-03 22:44:00,52.0,45.0,30.10,South,191,3.0,9.0,76,0.00,,,0.00,weatherlink.com 1.10,2013-03-04 04:44:00,
2013-03-03 22:59:00,52.4,45.0,30.09,SSE,151,3.0,9.0,76,0.00,,,0.00,weatherlink.com 1.10,2013-03-04 04:59:00,
2013-03-03 23:14:00,52.6,46.0,30.08,SE,129,4.0,8.0,77,0.00,,,0.00,weatherlink.com 1.10,2013-03-04 05:14:00,
2013-03-03 23:29:00,52.7,46.0,30.08,SE,128,2.0,7.0,78,0.00,,,0.00,weatherlink.com 1.10,2013-03-04 05:29:00,
2013-03-03 23:44:00,53.0,46.0,30.08,SSE,158,5.0,10.0,78,0.00,,,0.00,weatherlink.com 1.10,2013-03-04 05:44:00,
2013-03-03 23:59:00,53.1,46.0,30.08,South,174,2.0,8.0,78,0.00,,,0.00,weatherlink.com 1.10,2013-03-04 05:59:00,